Time;durP1;ratioP1;P1;durP2;ratioP2;P2;SDS_P1;SDS_P2;PMS_P1;PMS_P2;Temp;Humidity;BMP_temperature;BMP_pressure;BME280_temperature;BME280_humidity;BME280_pressure;Samples;Min_cycle;Max_cycle;Signal;HPM_P1;HPM_P2
2023/01/11 00:02:19;;;;;;;3.90;1.20;;;;;;;6.10;86.30;100303.98;107552;1253;61178;-77
2023/01/11 00:04:47;;;;;;;3.00;1.00;;;;;;;6.11;86.50;100299.83;107356;1253;59616;-78
2023/01/11 00:07:16;;;;;;;4.20;1.10;;;;;;;6.13;86.56;100295.65;107372;1253;71836;-76
2023/01/11 00:09:46;;;;;;;3.30;1.20;;;;;;;6.16;86.64;100290.04;109220;1254;70716;-77
2023/01/11 00:12:13;;;;;;;3.40;1.00;;;;;;;6.17;86.58;100285.80;109115;1254;71493;-77
2023/01/11 00:14:41;;;;;;;3.90;1.20;;;;;;;6.17;86.66;100291.86;108047;1254;59706;-79
2023/01/11 00:17:08;;;;;;;3.80;1.10;;;;;;;6.18;86.61;100287.58;107922;1254;60248;-78
2023/01/11 00:19:35;;;;;;;4.40;1.30;;;;;;;6.18;86.84;100296.04;108135;1253;75184;-78
2023/01/11 00:22:03;;;;;;;3.90;1.10;;;;;;;6.18;87.19;100292.81;107366;1254;70907;-76
2023/01/11 00:24:30;;;;;;;4.20;1.10;;;;;;;6.19;86.99;100284.55;107223;1253;72303;-77
2023/01/11 00:26:57;;;;;;;2.80;1.00;;;;;;;6.19;86.92;100275.58;107293;1254;60204;-77
2023/01/11 00:29:24;;;;;;;4.50;1.10;;;;;;;6.19;87.42;100272.61;107568;1253;60540;-76
2023/01/11 00:31:52;;;;;;;5.60;1.10;;;;;;;6.17;87.10;100261.04;107671;1257;71942;-76
2023/01/11 00:34:19;;;;;;;3.20;1.10;;;;;;;6.19;87.35;100258.88;107451;1254;69683;-76
2023/01/11 00:36:46;;;;;;;4.20;0.90;;;;;;;6.19;87.22;100254.52;107678;1257;71705;-78
2023/01/11 00:39:14;;;;;;;3.40;1.10;;;;;;;6.19;86.84;100253.11;107463;1252;59851;-76
2023/01/11 00:50:00;;;;;;;3.70;1.00;;;;;;;6.26;86.42;100250.82;107220;1256;71520;-80
2023/01/11 00:52:28;;;;;;;3.50;1.00;;;;;;;6.30;86.34;100244.93;107627;1254;59674;-77
2023/01/11 00:54:55;;;;;;;1.90;0.80;;;;;;;6.31;86.14;100248.16;107743;1253;59674;-77
2023/01/11 00:57:25;;;;;;;3.10;0.90;;;;;;;6.32;86.05;100244.11;107463;1256;71375;-78
2023/01/11 00:59:52;;;;;;;2.10;0.90;;;;;;;6.33;86.06;100245.08;107452;1254;71255;-77
2023/01/11 01:02:21;;;;;;;3.00;1.10;;;;;;;6.36;86.12;100247.29;107255;1253;71364;-76
2023/01/11 01:04:48;;;;;;;2.80;0.90;;;;;;;6.37;86.38;100246.94;107535;1254;59933;-78
2023/01/11 01:07:15;;;;;;;2.80;0.90;;;;;;;6.39;86.42;100249.02;107546;1252;60000;-76
2023/01/11 01:09:42;;;;;;;4.30;1.20;;;;;;;6.39;86.28;100246.65;107419;1254;71181;-78
2023/01/11 01:14:24;;;;;;;3.40;0.90;;;;;;;6.39;86.38;100247.52;107409;1255;70981;-77
2023/01/11 01:14:57;;;;;;;3.50;0.90;;;;;;;6.40;86.92;100248.30;107540;1254;70535;-77
2023/01/11 01:17:30;;;;;;;3.20;1.10;;;;;;;6.39;86.67;100253.83;107453;1253;62054;-78
2023/01/11 01:19:57;;;;;;;3.90;1.20;;;;;;;6.39;87.57;100252.58;107502;1254;60375;-78
2023/01/11 01:22:24;;;;;;;2.30;0.80;;;;;;;6.39;87.51;100246.11;107759;1254;73336;-77
2023/01/11 01:24:51;;;;;;;3.00;1.00;;;;;;;6.40;87.51;100246.33;107431;1254;70994;-76
2023/01/11 01:27:19;;;;;;;3.40;0.90;;;;;;;6.39;87.84;100243.62;107795;1253;72789;-78
2023/01/11 01:29:46;;;;;;;2.70;0.90;;;;;;;6.39;88.03;100245.61;107227;1253;59739;-77
2023/01/11 01:32:13;;;;;;;3.70;1.00;;;;;;;6.39;88.28;100235.59;107439;1257;60621;-78
2023/01/11 01:34:41;;;;;;;2.80;1.10;;;;;;;6.38;88.65;100243.95;107263;1254;72299;-77
2023/01/11 01:37:09;;;;;;;2.60;0.80;;;;;;;6.35;88.72;100241.23;107246;1253;69866;-76
2023/01/11 01:39:37;;;;;;;3.20;1.30;;;;;;;6.35;88.89;100232.41;107812;1253;71507;-78
2023/01/11 01:42:05;;;;;;;3.00;0.90;;;;;;;6.34;88.95;100226.20;107376;1252;62882;-76
2023/01/11 01:44:57;;;;;;;2.40;0.90;;;;;;;6.35;88.96;100225.29;107446;1253;60206;-77
2023/01/11 01:47:33;;;;;;;3.60;1.10;;;;;;;6.35;89.17;100223.84;107467;1254;74330;-77
2023/01/11 01:50:07;;;;;;;3.20;1.00;;;;;;;6.34;89.39;100214.45;107568;1254;71323;-77
2023/01/11 01:52:34;;;;;;;3.30;0.90;;;;;;;6.35;89.80;100219.84;107460;1254;71419;-77
2023/01/11 01:55:07;;;;;;;3.10;1.20;;;;;;;6.35;89.84;100214.92;107364;1253;60922;-75
2023/01/11 01:57:38;;;;;;;2.60;0.90;;;;;;;6.34;90.34;100214.95;107715;1254;60133;-77
2023/01/11 02:00:08;;;;;;;3.30;0.90;;;;;;;6.33;90.61;100216.14;107538;1253;72919;-77
2023/01/11 02:02:37;;;;;;;3.50;0.90;;;;;;;6.33;90.75;100216.14;107591;1253;71290;-77
2023/01/11 02:05:05;;;;;;;3.50;1.00;;;;;;;6.34;90.77;100212.54;107524;1254;72710;-77
2023/01/11 02:07:36;;;;;;;3.10;1.00;;;;;;;6.31;91.50;100214.21;107750;1254;61637;-77
2023/01/11 02:10:15;;;;;;;3.40;1.10;;;;;;;6.31;91.52;100210.55;107816;1253;60501;-77
2023/01/11 02:13:05;;;;;;;4.90;1.00;;;;;;;6.30;91.60;100207.65;107784;1254;72199;-77
2023/01/11 02:15:32;;;;;;;3.80;1.00;;;;;;;6.29;91.52;100194.98;107751;1254;70130;-76
2023/01/11 02:17:59;;;;;;;3.90;1.60;;;;;;;6.32;91.28;100183.27;108260;1253;71361;-76
2023/01/11 02:21:04;;;;;;;4.60;1.30;;;;;;;6.30;91.22;100187.15;107728;1253;62701;-76
2023/01/11 02:23:50;;;;;;;2.80;0.90;;;;;;;6.31;91.08;100181.91;107562;1252;60418;-77
2023/01/11 02:26:35;;;;;;;2.80;0.90;;;;;;;6.33;91.14;100182.27;107631;1254;73980;-77
2023/01/11 02:29:23;;;;;;;3.00;1.00;;;;;;;6.34;90.78;100170.77;107504;1254;69934;-79
2023/01/11 02:32:05;;;;;;;3.80;1.00;;;;;;;6.35;90.62;100163.59;107651;1253;72423;-80
2023/01/11 02:34:42;;;;;;;3.60;0.90;;;;;;;6.37;90.58;100157.27;107558;1253;61291;-79
2023/01/11 02:37:17;;;;;;;6.00;1.10;;;;;;;6.39;90.86;100158.42;107649;1254;61912;-77
2023/01/11 02:40:08;;;;;;;2.40;0.90;;;;;;;6.41;90.44;100159.31;107674;1252;73902;-78
2023/01/11 02:45:37;;;;;;;3.90;1.10;;;;;;;6.46;90.58;100155.71;107497;1252;72514;-76
2023/01/11 02:48:29;;;;;;;2.30;0.80;;;;;;;6.48;90.33;100145.87;107451;1252;61015;-77
2023/01/11 02:51:11;;;;;;;3.10;0.70;;;;;;;6.52;90.38;100148.08;107639;1252;60088;-78
2023/01/11 02:53:42;;;;;;;2.30;0.70;;;;;;;6.54;90.38;100140.75;107808;1254;73937;-77
2023/01/11 02:56:20;;;;;;;2.20;0.70;;;;;;;6.58;90.23;100132.27;107676;1253;71014;-78
2023/01/11 02:58:50;;;;;;;3.20;0.90;;;;;;;6.61;90.11;100128.06;107865;1253;72668;-78
2023/01/11 03:01:21;;;;;;;2.30;0.80;;;;;;;6.62;90.34;100125.10;107558;1253;60901;-78
2023/01/11 03:03:49;;;;;;;2.50;0.80;;;;;;;6.65;90.09;100119.84;107745;1253;60577;-77
2023/01/11 03:06:20;;;;;;;2.70;0.80;;;;;;;6.68;89.88;100117.59;107414;1256;73869;-76
2023/01/11 03:09:13;;;;;;;2.30;0.70;;;;;;;6.69;89.99;100120.70;107460;1251;70468;-77
2023/01/11 03:15:12;;;;;;;3.40;0.80;;;;;;;6.75;90.14;100122.81;107367;1252;61140;-78
2023/01/11 03:18:19;;;;;;;2.60;1.00;;;;;;;6.80;89.81;100114.82;108172;1252;61028;-78
2023/01/11 03:21:00;;;;;;;3.60;1.00;;;;;;;6.82;89.78;100116.09;106773;1253;74766;-76
2023/01/11 03:23:30;;;;;;;2.00;0.80;;;;;;;6.85;89.93;100104.19;106909;1252;71582;-77
2023/01/11 03:26:11;;;;;;;2.70;0.90;;;;;;;6.90;89.92;100092.05;106657;1252;72837;-77
2023/01/11 03:29:13;;;;;;;3.40;1.00;;;;;;;6.94;89.61;100091.98;106673;1253;60524;-77
2023/01/11 03:31:59;;;;;;;2.60;0.90;;;;;;;6.98;89.50;100092.64;106515;1262;60433;-77
2023/01/11 03:34:41;;;;;;;2.60;0.90;;;;;;;7.00;89.40;100081.83;107547;1257;72813;-77
2023/01/11 03:37:24;;;;;;;3.70;1.00;;;;;;;7.03;89.46;100085.15;106863;1252;72400;-77
2023/01/11 03:40:19;;;;;;;3.60;0.80;;;;;;;7.06;89.30;100091.72;106864;1252;71160;-79
2023/01/11 03:46:09;;;;;;;1.80;0.80;;;;;;;7.14;89.23;100078.35;106307;1261;60654;-78
2023/01/11 03:48:58;;;;;;;2.20;1.10;;;;;;;7.18;88.98;100070.20;106333;1263;73208;-76
2023/01/11 03:51:28;;;;;;;3.40;1.00;;;;;;;7.24;88.75;100067.46;107100;1254;70039;-77
2023/01/11 03:54:04;;;;;;;2.40;1.00;;;;;;;7.26;88.33;100063.36;107521;1254;71835;-77
2023/01/11 03:57:15;;;;;;;1.90;0.80;;;;;;;7.32;88.49;100053.21;107352;1254;61018;-77
2023/01/11 03:59:47;;;;;;;2.60;0.90;;;;;;;7.39;88.18;100054.70;107012;1252;60328;-77
2023/01/11 04:02:24;;;;;;;2.40;0.90;;;;;;;7.44;88.02;100056.77;106972;1252;72722;-78
2023/01/11 04:04:54;;;;;;;2.90;1.00;;;;;;;7.50;87.71;100046.29;106887;1253;70439;-77
2023/01/11 04:07:21;;;;;;;2.50;0.90;;;;;;;7.55;87.55;100044.17;106647;1253;74208;-77
2023/01/11 04:09:48;;;;;;;2.00;0.90;;;;;;;7.59;87.73;100044.61;107318;1252;60838;-77
2023/01/11 04:12:15;;;;;;;3.10;0.80;;;;;;;7.59;87.31;100046.85;106777;1252;60352;-79
2023/01/11 04:14:42;;;;;;;2.10;0.80;;;;;;;7.63;87.38;100046.44;106689;1253;75439;-77
2023/01/11 04:17:09;;;;;;;2.40;0.80;;;;;;;7.61;87.42;100044.70;106589;1255;70326;-77
2023/01/11 04:19:36;;;;;;;2.90;1.00;;;;;;;7.60;87.39;100046.61;107033;1253;72527;-75
2023/01/11 04:22:03;;;;;;;2.90;1.00;;;;;;;7.60;87.22;100041.34;106784;1253;60942;-77
2023/01/11 04:24:30;;;;;;;3.30;0.80;;;;;;;7.60;87.37;100041.77;106804;1253;60972;-79
2023/01/11 04:26:57;;;;;;;2.70;0.90;;;;;;;7.60;87.37;100036.59;107394;1252;74523;-78
2023/01/11 04:29:27;;;;;;;1.90;0.90;;;;;;;7.60;87.30;100043.58;107150;1254;71298;-78
2023/01/11 04:31:57;;;;;;;3.30;0.90;;;;;;;7.61;87.54;100042.59;106808;1252;72475;-77
2023/01/11 04:34:27;;;;;;;2.70;0.80;;;;;;;7.62;87.69;100044.23;106716;1254;60544;-78
2023/01/11 04:36:54;;;;;;;2.50;1.00;;;;;;;7.62;87.39;100036.68;106961;1253;60963;-76
2023/01/11 04:39:27;;;;;;;1.40;0.90;;;;;;;7.61;87.44;100041.66;106803;1253;74057;-78
2023/01/11 04:44:48;;;;;;;1.70;0.70;;;;;;;7.62;87.62;100039.48;106905;1256;72021;-78
2023/01/11 04:47:16;;;;;;;2.50;0.90;;;;;;;7.63;87.46;100042.55;107325;1253;62918;-77
2023/01/11 04:49:46;;;;;;;2.30;0.80;;;;;;;7.64;87.60;100033.48;106627;1255;60070;-76
2023/01/11 04:52:15;;;;;;;3.00;0.90;;;;;;;7.63;87.71;100039.70;107045;1252;72509;-77
2023/01/11 04:54:43;;;;;;;3.40;0.80;;;;;;;7.64;87.76;100037.52;106605;1257;70189;-77
2023/01/11 04:57:13;;;;;;;2.80;1.00;;;;;;;7.64;87.92;100042.28;106791;1254;72801;-77
2023/01/11 04:59:40;;;;;;;2.60;0.90;;;;;;;7.64;88.00;100034.48;106935;1254;61594;-77
2023/01/11 05:02:10;;;;;;;2.60;0.90;;;;;;;7.63;88.14;100034.49;106735;1253;60611;-76
2023/01/11 05:04:37;;;;;;;2.00;0.80;;;;;;;7.63;87.99;100032.39;107403;1252;72382;-78
2023/01/11 05:07:07;;;;;;;2.20;0.80;;;;;;;7.63;87.90;100035.36;106844;1253;69908;-79
2023/01/11 05:09:34;;;;;;;2.10;0.90;;;;;;;7.62;88.13;100034.70;107227;1252;72843;-79
2023/01/11 05:12:02;;;;;;;3.10;0.90;;;;;;;7.62;88.44;100041.42;106658;1253;60934;-76
2023/01/11 05:14:31;;;;;;;2.70;1.00;;;;;;;7.62;88.62;100039.77;107057;1252;60349;-77
2023/01/11 05:17:03;;;;;;;2.40;1.00;;;;;;;7.60;89.46;100040.80;106525;1253;74830;-78
2023/01/11 05:19:30;;;;;;;3.40;1.20;;;;;;;7.57;90.86;100037.06;107177;1254;69691;-79
2023/01/11 05:21:57;;;;;;;2.60;1.00;;;;;;;7.52;91.43;100033.23;107071;1252;71121;-77
2023/01/11 05:24:24;;;;;;;2.00;1.00;;;;;;;7.43;91.85;100033.00;108841;1252;58831;-77
2023/01/11 05:26:52;;;;;;;2.10;1.00;;;;;;;7.35;92.76;100032.42;108604;1252;58789;-79
2023/01/11 05:29:20;;;;;;;2.70;1.30;;;;;;;7.28;93.25;100032.19;107169;1252;72845;-78
2023/01/11 05:31:48;;;;;;;3.10;1.40;;;;;;;7.24;93.88;100036.16;108220;1253;70884;-77
2023/01/11 05:34:16;;;;;;;3.30;1.20;;;;;;;7.22;93.95;100037.65;108273;1252;71121;-79
2023/01/11 05:36:43;;;;;;;3.00;1.40;;;;;;;7.19;94.06;100035.96;107167;1253;60329;-75
2023/01/11 05:39:15;;;;;;;4.00;1.20;;;;;;;7.19;94.51;100037.75;107328;1253;60917;-75
2023/01/11 05:41:42;;;;;;;2.90;1.40;;;;;;;7.17;94.62;100036.93;106895;1255;72951;-77
2023/01/11 05:46:57;;;;;;;3.40;1.40;;;;;;;7.17;95.19;100034.95;106639;1253;70784;-76
2023/01/11 05:49:24;;;;;;;2.70;1.20;;;;;;;7.17;95.28;100030.73;106873;1253;61004;-76
2023/01/11 05:51:51;;;;;;;4.00;1.20;;;;;;;7.17;95.39;100031.13;107264;1255;60397;-78
2023/01/11 05:54:18;;;;;;;3.10;1.40;;;;;;;7.14;95.66;100035.06;109100;1252;73961;-75
2023/01/11 05:56:46;;;;;;;3.30;1.10;;;;;;;7.18;95.80;100035.29;108322;1252;71227;-79
2023/01/11 05:59:13;;;;;;;2.20;1.20;;;;;;;7.18;96.37;100035.45;107098;1253;71779;-78
2023/01/11 06:01:40;;;;;;;3.90;1.30;;;;;;;7.19;96.37;100033.16;107008;1253;60876;-76
2023/01/11 06:04:07;;;;;;;2.90;1.40;;;;;;;7.22;96.44;100037.55;106791;1253;60432;-77
2023/01/11 06:06:35;;;;;;;3.30;1.50;;;;;;;7.24;96.36;100036.33;106565;1254;72353;-76
2023/01/11 06:09:05;;;;;;;2.70;1.50;;;;;;;7.27;96.71;100033.02;106837;1252;69752;-79
2023/01/11 06:11:32;;;;;;;2.30;1.10;;;;;;;7.26;96.80;100033.77;106941;1253;72934;-76
2023/01/11 06:13:59;;;;;;;2.20;1.40;;;;;;;7.26;97.19;100027.58;107110;1253;60995;-75
2023/01/11 06:16:26;;;;;;;4.70;1.40;;;;;;;7.26;97.32;100034.09;106738;1255;59837;-78
2023/01/11 06:18:54;;;;;;;2.50;1.10;;;;;;;7.26;97.52;100031.48;107278;1252;71957;-77
2023/01/11 06:21:21;;;;;;;2.30;1.20;;;;;;;7.25;97.69;100038.16;106762;1253;71102;-76
2023/01/11 06:23:49;;;;;;;2.80;1.10;;;;;;;7.27;97.75;100035.25;106539;1257;72684;-78
2023/01/11 06:26:19;;;;;;;2.70;1.30;;;;;;;7.26;98.20;100044.71;106643;1253;61327;-77
2023/01/11 06:28:46;;;;;;;2.60;1.20;;;;;;;7.25;98.39;100036.52;106941;1253;60430;-76
2023/01/11 06:31:15;;;;;;;2.90;1.40;;;;;;;7.24;99.20;100034.55;106871;1254;74804;-79
2023/01/11 06:33:44;;;;;;;2.10;1.10;;;;;;;7.20;99.35;100027.42;107083;1260;69925;-80
2023/01/11 06:36:12;;;;;;;2.60;1.30;;;;;;;7.17;99.68;100025.29;107225;1254;71494;-81
2023/01/11 06:38:44;;;;;;;2.60;1.40;;;;;;;7.15;99.98;100018.08;107387;1254;60542;-80
2023/01/11 06:41:14;;;;;;;3.10;1.30;;;;;;;7.14;100.00;100022.96;107200;1253;60512;-80
2023/01/11 06:43:41;;;;;;;2.50;1.10;;;;;;;7.11;100.00;100023.30;107332;1253;75024;-81
2023/01/11 06:46:15;;;;;;;2.10;1.00;;;;;;;7.13;100.00;100018.55;106874;1253;71075;-81
2023/01/11 06:48:46;;;;;;;2.70;1.20;;;;;;;7.12;100.00;100021.65;107686;1253;73253;-80
2023/01/11 06:51:14;;;;;;;2.50;1.20;;;;;;;7.12;100.00;100026.56;107108;1260;60394;-80
2023/01/11 06:53:42;;;;;;;3.10;1.40;;;;;;;7.12;100.00;100026.55;107398;1253;60490;-82
2023/01/11 06:56:19;;;;;;;3.00;1.10;;;;;;;7.13;100.00;100027.88;107604;1253;72422;-81
2023/01/11 06:58:47;;;;;;;3.30;1.00;;;;;;;7.13;100.00;100033.65;107428;1255;70883;-80
2023/01/11 07:01:15;;;;;;;3.60;1.30;;;;;;;7.14;100.00;100034.27;107617;1252;73725;-81
2023/01/11 07:03:44;;;;;;;3.40;1.20;;;;;;;7.15;100.00;100028.48;107197;1252;60912;-80
2023/01/11 07:06:11;;;;;;;2.30;1.20;;;;;;;7.14;100.00;100029.10;108081;1257;60540;-79
2023/01/11 07:08:38;;;;;;;2.70;1.40;;;;;;;7.16;100.00;100024.51;107409;1253;73619;-80
2023/01/11 07:11:05;;;;;;;2.50;1.20;;;;;;;7.18;100.00;100030.11;107646;1256;70089;-80
2023/01/11 07:13:36;;;;;;;2.40;1.10;;;;;;;7.19;100.00;100029.64;107038;1252;71984;-80
2023/01/11 07:16:06;;;;;;;2.80;0.90;;;;;;;7.20;100.00;100029.66;107329;1258;60956;-80
2023/01/11 07:18:36;;;;;;;2.00;1.20;;;;;;;7.23;100.00;100033.48;107537;1253;60535;-79
2023/01/11 07:21:03;;;;;;;1.80;1.00;;;;;;;7.25;100.00;100038.85;106909;1254;72466;-77
2023/01/11 07:23:31;;;;;;;2.90;1.00;;;;;;;7.29;100.00;100046.33;106784;1257;69867;-79
2023/01/11 07:25:58;;;;;;;2.90;1.00;;;;;;;7.32;100.00;100046.88;107064;1252;71466;-77
2023/01/11 07:28:27;;;;;;;4.20;1.00;;;;;;;7.35;100.00;100040.40;107143;1252;60924;-78
2023/01/11 07:30:57;;;;;;;2.40;0.90;;;;;;;7.35;100.00;100036.09;107229;1253;60794;-76
2023/01/11 07:33:26;;;;;;;2.20;1.20;;;;;;;7.40;100.00;100035.64;106774;1253;73646;-79
2023/01/11 07:35:56;;;;;;;2.30;0.90;;;;;;;7.43;100.00;100035.30;106913;1254;69984;-75
2023/01/11 07:38:23;;;;;;;3.20;1.00;;;;;;;7.43;100.00;100033.36;106699;1254;73090;-78
2023/01/11 07:40:51;;;;;;;3.80;0.90;;;;;;;7.45;100.00;100036.31;107156;1253;60493;-80
2023/01/11 07:43:22;;;;;;;3.70;0.90;;;;;;;7.46;100.00;100040.73;106945;1254;60354;-80
2023/01/11 07:45:53;;;;;;;2.40;1.00;;;;;;;7.47;100.00;100036.74;107139;1252;73695;-79
2023/01/11 07:48:25;;;;;;;2.30;0.70;;;;;;;7.48;100.00;100042.27;107208;1252;69683;-79
2023/01/11 07:50:54;;;;;;;1.70;0.50;;;;;;;7.48;100.00;100045.58;107436;1253;71160;-79
2023/01/11 07:53:24;;;;;;;1.90;0.70;;;;;;;7.51;100.00;100041.88;107061;1253;60890;-78
2023/01/11 07:55:55;;;;;;;2.30;0.60;;;;;;;7.56;100.00;100040.57;106719;1257;60604;-78
2023/01/11 07:58:22;;;;;;;1.60;0.60;;;;;;;7.58;100.00;100045.58;106702;1252;72830;-79
2023/01/11 08:00:49;;;;;;;1.90;0.60;;;;;;;7.60;100.00;100043.59;106943;1253;70310;-80
2023/01/11 08:03:21;;;;;;;1.30;0.60;;;;;;;7.62;100.00;100045.85;107082;1252;71610;-78
2023/01/11 08:05:53;;;;;;;1.40;0.50;;;;;;;7.64;100.00;100045.25;107600;1253;60919;-81
2023/01/11 08:08:20;;;;;;;1.30;0.50;;;;;;;7.65;100.00;100044.95;107138;1252;60083;-82
2023/01/11 08:14:38;;;;;;;2.30;0.70;;;;;;;7.66;100.00;100042.88;107224;1253;73980;-81
2023/01/11 08:16:26;;;;;;;1.20;0.50;;;;;;;7.69;100.00;100037.97;107048;1253;73881;-78
2023/01/11 08:18:53;;;;;;;1.90;0.60;;;;;;;7.71;100.00;100041.13;106934;1253;60335;-79
2023/01/11 08:21:31;;;;;;;1.10;0.40;;;;;;;7.71;100.00;100041.80;107022;1260;60323;-78
2023/01/11 08:23:59;;;;;;;1.50;0.60;;;;;;;7.72;100.00;100036.96;107954;1255;72679;-77
2023/01/11 08:26:27;;;;;;;0.60;0.40;;;;;;;7.72;100.00;100036.00;109273;1253;71709;-80
2023/01/11 08:28:54;;;;;;;1.20;0.50;;;;;;;7.76;100.00;100033.02;109452;1253;71620;-82
2023/01/11 08:31:29;;;;;;;0.80;0.40;;;;;;;7.78;100.00;100032.77;109133;1252;60215;-82
2023/01/11 08:33:56;;;;;;;1.50;0.50;;;;;;;7.82;100.00;100047.34;109340;1252;58014;-82
2023/01/11 08:36:31;;;;;;;1.10;0.50;;;;;;;7.86;100.00;100052.57;108995;1253;74215;-81
2023/01/11 08:39:02;;;;;;;2.50;0.60;;;;;;;7.90;100.00;100056.08;108597;1253;70633;-82
2023/01/11 08:41:42;;;;;;;;;;;;;;;;;;;;;
2023/01/11 08:44:22;;;;;;;1.10;0.60;;;;;;;7.98;100.00;100044.45;107054;1253;61243;-80
2023/01/11 08:47:06;;;;;;;1.80;0.50;;;;;;;8.02;100.00;100043.27;107223;1256;60448;-79
2023/01/11 08:49:44;;;;;;;1.50;0.60;;;;;;;8.04;100.00;100052.86;106871;1253;71948;-79
2023/01/11 08:52:18;;;;;;;1.10;0.40;;;;;;;8.06;100.00;100057.98;107071;1252;71407;-78
2023/01/11 08:54:50;;;;;;;1.30;0.50;;;;;;;8.10;100.00;100060.98;107142;1251;72831;-78
2023/01/11 08:57:17;;;;;;;0.80;0.40;;;;;;;8.15;100.00;100056.17;107602;1254;61221;-77
2023/01/11 08:59:45;;;;;;;1.60;0.40;;;;;;;8.22;100.00;100064.11;107729;1253;60433;-79
2023/01/11 09:02:34;;;;;;;1.80;0.40;;;;;;;8.27;100.00;100063.33;108023;1253;74017;-79
2023/01/11 09:05:14;;;;;;;2.00;0.50;;;;;;;8.29;100.00;100067.22;107504;1253;71028;-78
2023/01/11 09:07:50;;;;;;;1.10;0.30;;;;;;;8.35;100.00;100054.85;106862;1253;72450;-78
2023/01/11 09:10:31;;;;;;;;;;;;;;;;;;;;;
2023/01/11 09:12:59;;;;;;;0.50;0.30;;;;;;;8.40;100.00;100063.93;106977;1253;60327;-78
2023/01/11 09:15:26;;;;;;;1.00;0.20;;;;;;;8.42;100.00;100071.55;107805;1253;72405;-78
2023/01/11 09:17:53;;;;;;;0.70;0.30;;;;;;;8.44;100.00;100068.34;107427;1257;70752;-78
2023/01/11 09:20:23;;;;;;;1.40;0.40;;;;;;;8.46;99.85;100066.42;107198;1253;71328;-78
2023/01/11 09:22:52;;;;;;;0.80;0.30;;;;;;;8.51;99.96;100072.73;106796;1253;62328;-79
2023/01/11 09:25:19;;;;;;;1.70;0.30;;;;;;;8.56;99.58;100073.10;106980;1253;60476;-79
2023/01/11 09:27:48;;;;;;;1.00;0.40;;;;;;;8.61;99.50;100072.77;106818;1253;73232;-77
2023/01/11 09:30:18;;;;;;;1.00;0.50;;;;;;;8.66;99.18;100076.75;106681;1252;69477;-80
2023/01/11 09:32:49;;;;;;;1.50;0.50;;;;;;;8.72;99.02;100079.91;107709;1253;70427;-76
2023/01/11 09:35:18;;;;;;;0.60;0.40;;;;;;;8.78;98.90;100079.33;106770;1253;60364;-79
2023/01/11 09:37:54;;;;;;;0.50;0.20;;;;;;;8.86;98.69;100086.66;107036;1251;60615;-78
2023/01/11 09:40:45;;;;;;;0.70;0.40;;;;;;;8.91;98.02;100090.48;107147;1257;74053;-78
2023/01/11 09:43:13;;;;;;;1.20;0.60;;;;;;;8.97;97.89;100086.27;107069;1256;69335;-79
2023/01/11 09:45:45;;;;;;;0.40;0.20;;;;;;;9.00;97.78;100083.34;107157;1252;71494;-76
2023/01/11 09:48:29;;;;;;;0.40;0.20;;;;;;;9.03;97.67;100085.05;107065;1253;60463;-76
2023/01/11 09:50:57;;;;;;;0.40;0.20;;;;;;;9.04;97.96;100068.05;107058;1253;61349;-78
2023/01/11 09:53:35;;;;;;;0.50;0.30;;;;;;;9.03;98.25;100061.13;107298;1254;73832;-77
2023/01/11 09:56:05;;;;;;;0.80;0.30;;;;;;;9.04;98.70;100058.89;106788;1254;69951;-76
2023/01/11 09:58:41;;;;;;;1.40;0.30;;;;;;;9.02;98.88;100072.11;106871;1256;72665;-78
2023/01/11 10:01:17;;;;;;;1.20;0.30;;;;;;;9.01;99.08;100065.20;106959;1252;61280;-77
2023/01/11 10:04:15;;;;;;;0.60;0.30;;;;;;;9.00;99.31;100069.91;106686;1254;60422;-77
2023/01/11 10:07:11;;;;;;;0.60;0.30;;;;;;;9.05;99.51;100065.98;106727;1254;73575;-80
2023/01/11 10:10:01;;;;;;;0.80;0.30;;;;;;;9.07;99.44;100072.29;106850;1253;71447;-78
2023/01/11 10:12:59;;;;;;;0.80;0.20;;;;;;;9.11;99.13;100075.52;107100;1256;74369;-80
2023/01/11 10:15:46;;;;;;;1.70;0.50;;;;;;;9.09;99.31;100076.64;106680;1253;62607;-77
2023/01/11 10:18:44;;;;;;;0.70;0.30;;;;;;;9.04;99.34;100079.34;106857;1256;60760;-77
2023/01/11 10:21:54;;;;;;;0.60;0.20;;;;;;;9.01;99.51;100083.10;106187;1254;686997;-79
2023/01/11 10:24:47;;;;;;;0.60;0.30;;;;;;;8.98;99.61;100087.26;106622;1258;70040;-77
2023/01/11 10:27:39;;;;;;;0.70;0.30;;;;;;;8.98;99.97;100083.52;107224;1253;72350;-78
2023/01/11 10:41:34;;;;;;;2.60;0.40;;;;;;;9.04;99.93;100059.09;106417;1258;71428;-77
2023/01/11 10:44:18;;;;;;;1.00;0.30;;;;;;;9.06;99.91;100058.44;106801;1253;60902;-79
2023/01/11 10:46:49;;;;;;;1.40;0.30;;;;;;;9.08;99.99;100056.27;106925;1253;60359;-78
2023/01/11 10:49:32;;;;;;;1.10;0.40;;;;;;;9.09;99.94;100058.05;106494;1258;73615;-79
2023/01/11 10:52:17;;;;;;;0.90;0.40;;;;;;;9.10;99.94;100055.20;106500;1256;70717;-80
2023/01/11 10:54:48;;;;;;;1.30;0.40;;;;;;;9.11;99.97;100051.15;106566;1253;71451;-78
2023/01/11 10:57:22;;;;;;;0.80;0.30;;;;;;;9.17;99.96;100044.64;106491;1253;61872;-78
2023/01/11 11:00:08;;;;;;;0.80;0.30;;;;;;;9.21;99.90;100052.59;106576;1254;60300;-78
2023/01/11 11:02:54;;;;;;;0.90;0.40;;;;;;;9.24;99.81;100057.23;106915;1257;73598;-78
2023/01/11 11:05:47;;;;;;;1.00;0.40;;;;;;;9.24;99.71;100065.30;107114;1253;71138;-78
2023/01/11 11:08:37;;;;;;;0.90;0.30;;;;;;;9.27;99.72;100061.96;106549;1256;73853;-78
2023/01/11 11:11:24;;;;;;;0.90;0.20;;;;;;;9.25;99.49;100065.04;106434;1256;62155;-81
2023/01/11 11:14:05;;;;;;;0.50;0.20;;;;;;;9.24;99.79;100069.00;106612;1258;60522;-78
2023/01/11 11:16:46;;;;;;;0.80;0.30;;;;;;;9.24;99.77;100066.36;106582;1257;73619;-79
2023/01/11 11:19:20;;;;;;;0.60;0.30;;;;;;;9.23;99.91;100071.46;106842;1253;70937;-78
2023/01/11 11:21:48;;;;;;;1.00;0.30;;;;;;;9.21;99.90;100061.23;107260;1257;72736;-77
2023/01/11 11:24:32;;;;;;;0.60;0.30;;;;;;;9.21;99.97;100063.35;106493;1253;60723;-78
2023/01/11 11:27:25;;;;;;;0.80;0.30;;;;;;;9.21;100.00;100062.32;106511;1253;60429;-76
2023/01/11 11:29:54;;;;;;;1.50;0.50;;;;;;;9.24;100.00;100057.04;106259;1255;73578;-79
2023/01/11 11:32:31;;;;;;;1.40;0.40;;;;;;;9.25;99.98;100053.39;106670;1255;69648;-77
2023/01/11 11:35:03;;;;;;;1.50;0.50;;;;;;;9.27;99.96;100058.41;106271;1256;72705;-77
2023/01/11 11:37:43;;;;;;;0.90;0.50;;;;;;;9.27;100.00;100063.42;106746;1253;60955;-77
2023/01/11 11:40:35;;;;;;;0.90;0.50;;;;;;;9.26;100.00;100068.02;106738;1257;60553;-77
2023/01/11 11:43:14;;;;;;;1.20;0.70;;;;;;;9.28;100.00;100065.23;106323;1258;72657;-79
2023/01/11 11:46:18;;;;;;;1.20;0.50;;;;;;;9.32;100.00;100061.20;106757;1253;71954;-77
2023/01/11 11:49:08;;;;;;;0.70;0.40;;;;;;;9.34;99.94;100066.83;106669;1252;71521;-77
2023/01/11 11:51:37;;;;;;;0.80;0.50;;;;;;;9.35;100.00;100079.05;106455;1253;60445;-77
2023/01/11 11:54:04;;;;;;;2.20;0.70;;;;;;;9.33;100.00;100094.88;106429;1253;60382;-77
2023/01/11 11:56:36;;;;;;;1.70;0.60;;;;;;;9.31;100.00;100100.46;106613;1253;72863;-78
2023/01/11 11:59:08;;;;;;;1.00;0.50;;;;;;;9.29;100.00;100098.64;107075;1253;70956;-77
2023/01/11 12:01:39;;;;;;;1.70;0.70;;;;;;;9.25;100.00;100101.14;106426;1252;72425;-77
2023/01/11 12:04:17;;;;;;;1.80;0.80;;;;;;;9.24;100.00;100105.54;106314;1253;60527;-77
2023/01/11 12:06:50;;;;;;;1.30;0.60;;;;;;;9.19;100.00;100111.73;106601;1255;60486;-74
2023/01/11 12:09:30;;;;;;;2.10;0.70;;;;;;;9.17;100.00;100113.24;106333;1253;72377;-74
2023/01/11 12:11:57;;;;;;;1.70;0.90;;;;;;;9.14;100.00;100108.27;106214;1253;69679;-74
2023/01/11 12:14:30;;;;;;;1.40;0.80;;;;;;;9.13;100.00;100107.20;106421;1253;73356;-75
2023/01/11 12:16:57;;;;;;;1.80;0.90;;;;;;;9.11;100.00;100108.18;107135;1255;60324;-74
2023/01/11 12:19:42;;;;;;;1.50;0.80;;;;;;;9.10;100.00;100112.88;106232;1259;60516;-75
2023/01/11 12:22:17;;;;;;;1.70;0.90;;;;;;;9.08;100.00;100096.98;106229;1252;71695;-76
2023/01/11 12:25:01;;;;;;;2.30;1.20;;;;;;;9.06;100.00;100100.09;106436;1253;69168;-75
2023/01/11 12:27:39;;;;;;;2.70;1.20;;;;;;;9.06;100.00;100090.15;106462;1258;72533;-77
2023/01/11 12:30:09;;;;;;;2.80;1.00;;;;;;;9.06;100.00;100089.50;106516;1253;60386;-75
2023/01/11 12:32:38;;;;;;;3.00;1.10;;;;;;;9.06;100.00;100098.16;106553;1256;60536;-76